createdAt,value
2018-04-06T00:01:08.381Z,12.60
2018-04-06T00:03:35.876Z,12.60
2018-04-06T00:06:03.478Z,12.60
2018-04-06T00:08:30.988Z,12.60
2018-04-06T00:10:58.494Z,12.60
2018-04-06T00:13:26.760Z,12.60
2018-04-06T00:15:54.275Z,12.60
2018-04-06T00:18:21.791Z,12.60
2018-04-06T00:20:49.352Z,12.60
2018-04-06T00:23:16.874Z,12.60
2018-04-06T00:25:44.429Z,12.60
2018-04-06T00:28:12.699Z,12.50
2018-04-06T00:30:40.179Z,12.50
2018-04-06T00:33:08.464Z,12.50
2018-04-06T00:35:35.962Z,12.40
2018-04-06T00:38:03.483Z,12.40
2018-04-06T00:40:30.959Z,12.40
2018-04-06T00:42:58.475Z,12.40
2018-04-06T00:45:25.974Z,12.30
2018-04-06T00:47:53.558Z,12.30
2018-04-06T00:50:21.043Z,12.30
2018-04-06T00:52:48.602Z,12.30
2018-04-06T00:55:16.110Z,12.30
2018-04-06T00:57:43.634Z,12.20
2018-04-06T01:00:11.130Z,12.10
2018-04-06T01:02:38.642Z,12.10
2018-04-06T01:05:06.106Z,12.10
2018-04-06T01:07:34.389Z,12.00
2018-04-06T01:10:02.670Z,12.00
2018-04-06T01:12:30.920Z,12.00
2018-04-06T01:14:58.951Z,12.00
2018-04-06T01:17:27.225Z,12.00
2018-04-06T01:19:54.769Z,11.90
2018-04-06T01:22:22.258Z,12.00
2018-04-06T01:24:49.751Z,11.90
2018-04-06T01:27:18.011Z,11.90
2018-04-06T01:29:45.510Z,11.90
2018-04-06T01:32:13.844Z,11.90
2018-04-06T01:34:41.435Z,11.80
2018-04-06T01:37:09.010Z,11.80
2018-04-06T01:39:36.498Z,11.80
2018-04-06T01:42:04.016Z,11.80
2018-04-06T01:44:31.527Z,11.80
2018-04-06T01:46:59.033Z,11.80
2018-04-06T01:49:27.293Z,11.70
2018-04-06T01:51:54.827Z,11.70
2018-04-06T01:54:22.327Z,11.70
2018-04-06T01:56:49.882Z,11.70
2018-04-06T01:59:17.374Z,11.70
2018-04-06T02:01:44.855Z,11.70
2018-04-06T02:04:12.391Z,11.70
2018-04-06T02:06:39.881Z,11.70
2018-04-06T02:09:07.407Z,11.70
2018-04-06T02:11:34.924Z,11.70
2018-04-06T02:14:02.507Z,11.70
2018-04-06T02:16:29.994Z,11.70
2018-04-06T02:18:58.265Z,11.60
2018-04-06T02:21:25.767Z,11.60
2018-04-06T02:23:54.018Z,11.60
2018-04-06T02:26:21.501Z,11.60
2018-04-06T02:28:50.063Z,11.60
2018-04-06T02:31:17.558Z,11.60
2018-04-06T02:33:45.073Z,11.60
2018-04-06T02:36:12.563Z,11.60
2018-04-06T02:38:40.079Z,11.60
2018-04-06T02:41:07.558Z,11.60
2018-04-06T02:43:35.857Z,11.60
2018-04-06T02:46:03.307Z,11.60
2018-04-06T02:48:30.785Z,11.60
2018-04-06T02:50:59.052Z,11.60
2018-04-06T02:53:26.625Z,11.50
2018-04-06T02:55:54.145Z,11.50
2018-04-06T02:58:21.678Z,11.50
2018-04-06T03:00:49.179Z,11.50
2018-04-06T03:03:16.742Z,11.50
2018-04-06T03:05:44.246Z,11.40
2018-04-06T03:08:11.759Z,11.50
2018-04-06T03:10:39.291Z,11.50
2018-04-06T03:13:06.779Z,11.40
2018-04-06T03:15:34.287Z,11.40
2018-04-06T03:18:02.530Z,11.40
2018-04-06T03:20:30.023Z,11.40
2018-04-06T03:22:57.506Z,11.40
2018-04-06T03:25:25.040Z,11.40
2018-04-06T03:27:52.555Z,11.40
2018-04-06T03:30:20.933Z,11.40
2018-04-06T03:32:48.411Z,11.40
2018-04-06T03:35:15.971Z,11.40
2018-04-06T03:37:44.977Z,11.30
2018-04-06T03:40:12.551Z,11.30
2018-04-06T03:42:40.022Z,11.30
2018-04-06T03:45:07.529Z,11.30
2018-04-06T03:47:35.013Z,11.30
2018-04-06T03:50:02.510Z,11.30
2018-04-06T03:52:30.036Z,11.30
2018-04-06T03:54:58.318Z,11.30
2018-04-06T03:57:26.588Z,11.30
2018-04-06T03:59:54.080Z,11.30
2018-04-06T04:02:22.462Z,11.20
2018-04-06T04:04:49.986Z,11.20
2018-04-06T04:07:17.469Z,11.20
2018-04-06T04:09:45.019Z,11.30
2018-04-06T04:12:12.511Z,11.20
2018-04-06T04:14:40.019Z,11.20
2018-04-06T04:17:08.285Z,11.20
2018-04-06T04:19:35.798Z,11.20
2018-04-06T04:22:03.300Z,11.20
2018-04-06T04:24:30.790Z,11.10
2018-04-06T04:26:58.342Z,11.10
2018-04-06T04:29:25.835Z,11.10
2018-04-06T04:31:53.314Z,11.10
2018-04-06T04:34:20.825Z,11.10
2018-04-06T04:36:48.318Z,11.10
2018-04-06T04:39:15.799Z,11.10
2018-04-06T04:41:43.391Z,11.10
2018-04-06T04:44:10.888Z,11.00
2018-04-06T04:46:39.202Z,11.10
2018-04-06T04:49:07.456Z,11.10
2018-04-06T04:51:35.727Z,11.00
2018-04-06T04:54:03.239Z,11.00
2018-04-06T04:56:30.807Z,11.10
2018-04-06T04:58:59.052Z,11.10
2018-04-06T05:01:26.574Z,11.00
2018-04-06T05:03:54.058Z,11.10
2018-04-06T05:06:21.656Z,11.00
2018-04-06T05:08:49.162Z,11.00
2018-04-06T05:11:17.444Z,11.10
2018-04-06T05:13:44.997Z,11.00
2018-04-06T05:16:12.491Z,11.10
2018-04-06T05:18:40.722Z,11.00
2018-04-06T05:21:08.248Z,11.00
2018-04-06T05:23:35.731Z,11.10
2018-04-06T05:26:03.219Z,11.10
2018-04-06T05:28:30.738Z,11.10
2018-04-06T05:30:58.299Z,11.10
2018-04-06T05:33:25.842Z,11.10
2018-04-06T05:35:53.330Z,11.10
2018-04-06T05:38:20.864Z,11.10
2018-04-06T05:40:49.162Z,11.10
2018-04-06T05:43:16.646Z,11.10
2018-04-06T05:45:44.204Z,11.20
2018-04-06T05:48:11.739Z,11.10
2018-04-06T05:50:39.216Z,11.10
2018-04-06T05:53:06.745Z,11.10
2018-04-06T05:55:34.281Z,11.10
2018-04-06T05:58:01.783Z,11.10
2018-04-06T06:00:29.285Z,11.10
2018-04-06T06:02:56.854Z,11.20
2018-04-06T06:05:24.372Z,11.20
2018-04-06T06:07:51.862Z,11.20
2018-04-06T06:10:19.363Z,11.20
2018-04-06T06:12:47.635Z,11.30
2018-04-06T06:15:15.122Z,11.30
2018-04-06T06:17:42.651Z,11.40
2018-04-06T06:20:10.155Z,11.40
2018-04-06T06:22:37.676Z,11.40
2018-04-06T06:25:05.234Z,11.40
2018-04-06T06:27:33.475Z,11.40
2018-04-06T06:30:01.763Z,11.40
2018-04-06T06:32:29.243Z,11.40
2018-04-06T06:34:56.726Z,11.40
2018-04-06T06:37:24.210Z,11.40
2018-04-06T06:39:51.775Z,11.50
2018-04-06T06:42:20.055Z,11.50
2018-04-06T06:44:47.546Z,11.50
2018-04-06T06:47:15.066Z,11.60
2018-04-06T06:49:42.569Z,11.50
2018-04-06T06:52:10.062Z,11.60
2018-04-06T06:54:38.324Z,11.70
2018-04-06T06:57:05.833Z,11.60
2018-04-06T06:59:34.100Z,11.80
2018-04-06T07:02:02.351Z,11.80
2018-04-06T07:04:29.863Z,11.80
2018-04-06T07:06:57.342Z,11.90
2018-04-06T07:09:25.666Z,12.00
2018-04-06T07:11:53.158Z,12.00
2018-04-06T07:14:20.686Z,12.10
2018-04-06T07:16:48.984Z,12.20
2018-04-06T07:19:16.558Z,12.20
2018-04-06T07:21:44.080Z,12.40
2018-04-06T07:24:11.589Z,12.40
2018-04-06T07:26:39.062Z,12.50
2018-04-06T07:29:06.566Z,12.60
2018-04-06T07:31:34.034Z,12.70
2018-04-06T07:34:01.548Z,12.90
2018-04-06T07:36:29.872Z,13.00
2018-04-06T07:38:57.390Z,13.00
2018-04-06T07:41:24.936Z,13.00
2018-04-06T07:43:52.423Z,13.10
2018-04-06T07:46:19.924Z,13.20
2018-04-06T07:48:47.403Z,13.30
2018-04-06T07:51:15.642Z,13.70
2018-04-06T07:53:43.207Z,13.60
2018-04-06T07:56:10.702Z,13.90
2018-04-06T07:58:38.191Z,14.10
2018-04-06T08:01:05.688Z,14.30
2018-04-06T08:03:33.974Z,14.80
2018-04-06T08:06:01.488Z,14.80
2018-04-06T08:08:28.992Z,15.00
2018-04-06T08:10:56.469Z,15.20
2018-04-06T08:13:24.823Z,15.60
2018-04-06T08:15:52.271Z,15.60
2018-04-06T08:18:19.764Z,15.80
2018-04-06T08:20:47.271Z,16.10
2018-04-06T08:23:15.532Z,16.50
2018-04-06T08:25:43.059Z,16.50
2018-04-06T08:28:10.543Z,16.70
2018-04-06T08:30:38.050Z,16.90
2018-04-06T08:33:05.559Z,17.10
2018-04-06T08:35:33.819Z,17.60
2018-04-06T08:38:01.336Z,17.60
2018-04-06T08:40:28.836Z,17.80
2018-04-06T08:42:57.090Z,18.40
2018-04-06T08:45:24.629Z,18.40
2018-04-06T08:47:52.119Z,18.60
2018-04-06T08:50:20.422Z,19.10
2018-04-06T08:52:47.906Z,19.10
2018-04-06T08:55:15.424Z,19.30
2018-04-06T08:57:43.707Z,19.80
2018-04-06T09:00:11.204Z,19.80
2018-04-06T09:02:39.468Z,20.30
2018-04-06T09:05:06.958Z,20.20
2018-04-06T09:07:35.214Z,20.60
2018-04-06T09:10:02.687Z,20.60
2018-04-06T09:12:30.176Z,20.90
2018-04-06T09:14:57.681Z,21.10
2018-04-06T09:17:25.686Z,21.40
2018-04-06T09:19:53.186Z,21.60
2018-04-06T09:22:22.163Z,21.90
2018-04-06T09:24:49.694Z,21.90
2018-04-06T09:27:17.947Z,22.40
2018-04-06T09:29:45.458Z,22.40
2018-04-06T09:32:12.995Z,22.60
2018-04-06T09:34:40.565Z,22.80
2018-04-06T09:37:08.102Z,23.10
2018-04-06T09:39:35.622Z,23.30
2018-04-06T09:42:03.093Z,23.50
2018-04-06T09:44:30.656Z,23.80
2018-04-06T09:46:58.151Z,24.00
2018-04-06T09:49:26.415Z,24.50
2018-04-06T09:51:53.997Z,24.50
2018-04-06T09:54:21.527Z,24.70
2018-04-06T09:56:49.012Z,24.90
2018-04-06T09:59:16.575Z,25.20
2018-04-06T10:01:44.073Z,25.50
2018-04-06T10:04:11.636Z,25.60
2018-04-06T10:06:39.130Z,25.80
2018-04-06T10:09:07.399Z,26.10
2018-04-06T10:11:34.924Z,26.00
2018-04-06T10:14:02.440Z,26.30
2018-04-06T10:16:29.942Z,26.40
2018-04-06T10:18:58.202Z,26.90
2018-04-06T10:21:25.781Z,26.80
2018-04-06T10:23:53.294Z,27.20
2018-04-06T10:26:20.779Z,27.30
2018-04-06T10:28:48.244Z,27.60
2018-04-06T10:31:15.750Z,27.80
2018-04-06T10:33:43.251Z,27.90
2018-04-06T10:36:11.598Z,28.30
2018-04-06T10:38:39.115Z,28.30
2018-04-06T10:41:07.379Z,28.60
2018-04-06T10:43:34.956Z,28.60
2018-04-06T10:46:02.440Z,28.80
2018-04-06T10:48:30.949Z,29.20
2018-04-06T10:50:58.483Z,29.10
2018-04-06T10:53:25.987Z,29.30
2018-04-06T10:55:54.272Z,29.50
2018-04-06T10:58:21.782Z,29.50
2018-04-06T11:00:49.326Z,29.80
2018-04-06T11:03:16.820Z,29.90
2018-04-06T11:05:44.314Z,30.10
2018-04-06T11:08:11.804Z,30.30
2018-04-06T11:10:39.318Z,30.70
2018-04-06T11:13:06.818Z,31.20
2018-04-06T11:15:34.291Z,31.80
2018-04-06T11:18:01.762Z,32.70
2018-04-06T11:20:29.300Z,33.90
2018-04-06T11:22:56.791Z,36.10
2018-04-06T11:25:24.290Z,38.40
2018-04-06T11:27:51.776Z,39.90
2018-04-06T11:30:20.038Z,41.30
2018-04-06T11:32:47.527Z,41.30
2018-04-06T11:35:15.865Z,41.40
2018-04-06T11:37:43.340Z,41.40
2018-04-06T11:40:10.830Z,41.90
2018-04-06T11:42:38.311Z,42.50
2018-04-06T11:45:05.795Z,42.80
2018-04-06T11:47:34.050Z,42.60
2018-04-06T11:50:01.526Z,42.60
2018-04-06T11:52:29.327Z,43.00
2018-04-06T11:54:57.649Z,43.20
2018-04-06T11:57:25.645Z,43.10
2018-04-06T11:59:53.120Z,43.90
2018-04-06T12:02:20.592Z,43.30
2018-04-06T12:04:48.886Z,43.20
2018-04-06T12:07:16.372Z,43.20
2018-04-06T12:09:43.877Z,43.60
2018-04-06T12:12:11.379Z,43.90
2018-04-06T12:14:38.862Z,44.10
2018-04-06T12:17:06.341Z,44.70
2018-04-06T12:19:34.594Z,45.20
2018-04-06T12:22:02.084Z,45.20
2018-04-06T12:24:29.602Z,45.50
2018-04-06T12:26:57.095Z,46.00
2018-04-06T12:29:25.380Z,46.50
2018-04-06T12:31:53.626Z,46.50
2018-04-06T12:34:21.127Z,46.50
2018-04-06T12:36:49.446Z,46.70
2018-04-06T12:39:16.922Z,46.70
2018-04-06T12:41:44.472Z,46.00
2018-04-06T12:44:12.815Z,45.30
2018-04-06T12:46:40.312Z,45.30
2018-04-06T12:49:07.823Z,45.40
2018-04-06T12:51:36.084Z,45.00
2018-04-06T12:54:04.380Z,44.80
2018-04-06T12:56:32.637Z,44.30
2018-04-06T12:59:00.115Z,44.30
2018-04-06T13:01:27.629Z,44.00
2018-04-06T13:03:55.122Z,43.90
2018-04-06T13:06:22.710Z,44.30
2018-04-06T13:08:50.177Z,44.30
2018-04-06T13:11:17.677Z,43.90
2018-04-06T13:13:45.155Z,43.80
2018-04-06T13:16:12.645Z,44.30
2018-04-06T13:18:40.873Z,45.30
2018-04-06T13:21:08.382Z,45.30
2018-04-06T13:23:35.871Z,46.00
2018-04-06T13:26:04.138Z,44.70
2018-04-06T13:28:31.615Z,44.70
2018-04-06T13:30:59.143Z,45.10
2018-04-06T13:33:26.658Z,46.70
2018-04-06T13:35:54.163Z,48.10
2018-04-06T13:38:21.647Z,49.20
2018-04-06T13:40:49.139Z,49.90
2018-04-06T13:43:16.637Z,50.30
2018-04-06T13:45:44.104Z,50.40
2018-04-06T13:48:11.593Z,50.50
2018-04-06T13:50:39.860Z,50.70
2018-04-06T13:53:07.334Z,50.70
2018-04-06T13:55:35.622Z,51.30
2018-04-06T13:58:03.122Z,51.30
2018-04-06T14:00:30.629Z,51.40
2018-04-06T14:02:58.130Z,51.10
2018-04-06T14:05:25.630Z,50.60
2018-04-06T14:07:53.878Z,48.80
2018-04-06T14:10:21.362Z,48.80
2018-04-06T14:12:48.843Z,46.40
2018-04-06T14:15:17.108Z,44.30
2018-04-06T14:17:44.628Z,44.30
2018-04-06T14:20:12.110Z,44.50
2018-04-06T14:22:39.588Z,44.90
2018-04-06T14:25:07.080Z,44.50
2018-04-06T14:27:34.591Z,44.10
2018-04-06T14:30:02.063Z,44.20
2018-04-06T14:32:30.327Z,45.50
2018-04-06T14:34:57.802Z,45.50
2018-04-06T14:37:26.110Z,43.90
2018-04-06T14:39:54.359Z,42.10
2018-04-06T14:42:21.873Z,42.00
2018-04-06T14:44:50.123Z,39.00
2018-04-06T14:47:17.644Z,39.00
2018-04-06T14:49:45.126Z,37.90
2018-04-06T14:52:12.606Z,36.40
2018-04-06T14:54:40.135Z,35.40
2018-04-06T14:57:08.469Z,34.10
2018-04-06T14:59:35.954Z,34.00
2018-04-06T15:02:03.494Z,33.80
2018-04-06T15:04:30.999Z,33.70
2018-04-06T15:06:58.560Z,34.20
2018-04-06T15:09:26.055Z,34.60
2018-04-06T15:11:54.407Z,34.60
2018-04-06T15:14:21.918Z,34.50
2018-04-06T15:16:49.418Z,34.40
2018-04-06T15:19:17.699Z,35.10
2018-04-06T15:21:45.978Z,36.30
2018-04-06T15:24:13.489Z,36.20
2018-04-06T15:26:41.734Z,37.10
2018-04-06T15:29:09.211Z,37.00
2018-04-06T15:31:36.727Z,37.10
2018-04-06T15:34:04.232Z,37.20
2018-04-06T15:36:31.719Z,36.90
2018-04-06T15:38:59.195Z,36.50
2018-04-06T15:41:28.290Z,34.70
2018-04-06T15:43:55.847Z,34.60
2018-04-06T15:46:23.351Z,33.90
2018-04-06T15:48:50.887Z,33.30
2018-04-06T15:51:18.423Z,32.90
2018-04-06T15:53:46.676Z,32.40
2018-04-06T15:56:14.933Z,32.10
2018-04-06T15:58:42.459Z,32.10
2018-04-06T16:01:09.966Z,31.90
2018-04-06T16:03:37.441Z,31.90
2018-04-06T16:06:04.991Z,31.60
2018-04-06T16:08:32.470Z,31.20
2018-04-06T16:10:59.948Z,30.60
2018-04-06T16:13:27.439Z,30.10
2018-04-06T16:15:54.942Z,29.80
2018-04-06T16:18:23.225Z,29.10
2018-04-06T16:20:51.541Z,28.80
2018-04-06T16:23:19.059Z,28.80
2018-04-06T16:25:46.602Z,28.60
2018-04-06T16:28:14.127Z,28.50
2018-04-06T16:30:42.381Z,28.10
2018-04-06T16:33:09.966Z,28.00
2018-04-06T16:35:37.482Z,27.90
2018-04-06T16:38:05.022Z,27.80
2018-04-06T16:40:32.499Z,27.60
2018-04-06T16:43:00.770Z,27.20
2018-04-06T16:45:28.291Z,27.20
2018-04-06T16:47:55.850Z,27.10
2018-04-06T16:50:23.418Z,27.00
2018-04-06T16:52:51.704Z,26.60
2018-04-06T16:55:19.987Z,26.30
2018-04-06T16:57:48.288Z,26.30
2018-04-06T17:00:15.786Z,26.30
2018-04-06T17:02:43.283Z,26.10
2018-04-06T17:05:10.783Z,26.00
2018-04-06T17:07:38.326Z,25.80
2018-04-06T17:10:05.818Z,25.70
2018-04-06T17:12:34.160Z,25.40
2018-04-06T17:15:01.675Z,25.40
2018-04-06T17:17:29.183Z,25.30
2018-04-06T17:19:56.755Z,25.20
2018-04-06T17:22:24.345Z,25.00
2018-04-06T17:24:51.851Z,24.90
2018-04-06T17:27:19.330Z,24.80
2018-04-06T17:29:47.603Z,24.60
2018-04-06T17:32:15.185Z,24.60
2018-04-06T17:34:42.652Z,24.50
2018-04-06T17:37:10.150Z,24.50
2018-04-06T17:39:38.398Z,24.30
2018-04-06T17:42:05.895Z,24.30
2018-04-06T17:44:33.397Z,24.10
2018-04-06T17:47:00.910Z,24.10
2018-04-06T17:49:28.817Z,24.00
2018-04-06T17:51:56.315Z,23.90
2018-04-06T17:54:23.806Z,23.80
2018-04-06T17:56:51.283Z,23.80
2018-04-06T17:59:18.815Z,23.70
2018-04-06T18:01:47.056Z,23.50
2018-04-06T18:04:14.538Z,23.50
2018-04-06T18:06:42.034Z,23.40
2018-04-06T18:09:10.298Z,23.30
2018-04-06T18:11:37.823Z,23.30
2018-04-06T18:14:05.295Z,23.20
2018-04-06T18:16:32.806Z,23.10
2018-04-06T18:19:00.279Z,23.00
2018-04-06T18:21:27.828Z,23.00
2018-04-06T18:23:56.059Z,22.80
2018-04-06T18:26:23.619Z,22.80
2018-04-06T18:28:51.118Z,22.80
2018-04-06T18:31:18.580Z,22.70
2018-04-06T18:33:46.831Z,22.60
2018-04-06T18:36:15.099Z,22.50
2018-04-06T18:38:42.617Z,22.50
2018-04-06T18:41:10.851Z,22.40
2018-04-06T18:43:38.337Z,22.40
2018-04-06T18:46:05.846Z,22.30
2018-04-06T18:48:34.152Z,22.20
2018-04-06T18:51:01.663Z,22.10
2018-04-06T18:53:29.246Z,22.10
2018-04-06T18:55:56.737Z,22.10
2018-04-06T18:58:25.008Z,21.90
2018-04-06T19:00:52.544Z,21.90
2018-04-06T19:03:20.044Z,21.90
2018-04-06T19:05:47.550Z,21.90
2018-04-06T19:08:15.816Z,21.70
2018-04-06T19:10:43.299Z,21.70
2018-04-06T19:13:10.849Z,21.70
2018-04-06T19:15:38.343Z,21.60
2018-04-06T19:18:05.875Z,21.50
2018-04-06T19:20:33.341Z,21.50
2018-04-06T19:23:00.843Z,21.50
2018-04-06T19:25:28.320Z,21.40
2018-04-06T19:27:55.830Z,21.40
2018-04-06T19:30:23.350Z,21.30
2018-04-06T19:32:50.907Z,21.30
2018-04-06T19:35:18.386Z,21.20
2018-04-06T19:37:45.946Z,21.20
2018-04-06T19:40:13.451Z,21.10
2018-04-06T19:42:40.955Z,21.10
2018-04-06T19:45:09.266Z,21.00
2018-04-06T19:47:36.758Z,21.00
2018-04-06T19:50:04.282Z,21.00
2018-04-06T19:52:31.772Z,20.90
2018-04-06T19:54:59.230Z,20.90
2018-04-06T19:57:27.496Z,20.80
2018-04-06T19:59:55.741Z,20.70
2018-04-06T20:02:24.005Z,20.60
2018-04-06T20:04:51.495Z,20.60
2018-04-06T20:07:19.015Z,20.60
2018-04-06T20:09:47.275Z,20.60
2018-04-06T20:12:14.767Z,20.50
2018-04-06T20:14:43.016Z,20.40
2018-04-06T20:17:10.579Z,20.40
2018-04-06T20:19:38.079Z,20.40
2018-04-06T20:22:05.572Z,20.40
2018-04-06T20:24:33.859Z,20.20
2018-04-06T20:27:01.328Z,20.20
2018-04-06T20:29:28.832Z,20.20
2018-04-06T20:31:56.324Z,20.20
2018-04-06T20:34:23.827Z,20.10
2018-04-06T20:36:51.399Z,20.10
2018-04-06T20:39:18.925Z,20.00
2018-04-06T20:41:46.446Z,19.90
2018-04-06T20:44:13.966Z,19.90
2018-04-06T20:46:41.489Z,19.80
2018-04-06T20:49:09.750Z,19.80
2018-04-06T20:51:37.251Z,19.80
2018-04-06T20:54:05.513Z,19.70
2018-04-06T20:56:33.047Z,19.70
2018-04-06T20:59:01.378Z,19.60
2018-04-06T21:01:28.896Z,19.60
2018-04-06T21:03:56.422Z,19.60
2018-04-06T21:06:24.672Z,19.50
2018-04-06T21:08:52.165Z,19.40
2018-04-06T21:11:19.706Z,19.40
2018-04-06T21:13:47.251Z,19.30
2018-04-06T21:16:14.737Z,19.30
2018-04-06T21:18:43.038Z,19.30
2018-04-06T21:21:10.528Z,19.30
2018-04-06T21:23:38.027Z,19.30
2018-04-06T21:26:05.551Z,19.30
2018-04-06T21:28:33.061Z,19.20
2018-04-06T21:31:00.564Z,19.20
2018-04-06T21:33:28.106Z,19.10
2018-04-06T21:35:55.626Z,19.10
2018-04-06T21:38:23.223Z,19.00
2018-04-06T21:40:50.726Z,19.00
2018-04-06T21:43:18.222Z,19.00
2018-04-06T21:45:46.478Z,18.90
2018-04-06T21:48:13.964Z,18.90
2018-04-06T21:50:41.486Z,18.90
2018-04-06T21:53:08.974Z,18.90
2018-04-06T21:55:36.487Z,18.80
2018-04-06T21:58:04.767Z,18.80
2018-04-06T22:00:32.234Z,18.80
2018-04-06T22:02:59.743Z,18.80
2018-04-06T22:05:27.298Z,18.70
2018-04-06T22:07:55.560Z,18.70
2018-04-06T22:10:23.068Z,18.60
2018-04-06T22:12:50.587Z,18.70
2018-04-06T22:15:18.127Z,18.60
2018-04-06T22:17:45.691Z,18.60
2018-04-06T22:20:13.971Z,18.50
2018-04-06T22:22:42.234Z,18.40
2018-04-06T22:25:09.774Z,18.40
2018-04-06T22:27:37.279Z,18.40
2018-04-06T22:30:04.734Z,18.40
2018-04-06T22:32:32.222Z,18.40
2018-04-06T22:35:00.489Z,18.30
2018-04-06T22:37:28.007Z,18.30
2018-04-06T22:39:55.567Z,18.30
2018-04-06T22:42:23.083Z,18.30
2018-04-06T22:44:51.335Z,18.20
2018-04-06T22:47:18.828Z,18.20
2018-04-06T22:49:46.337Z,18.20
2018-04-06T22:52:13.827Z,18.10
2018-04-06T22:54:42.152Z,18.10
2018-04-06T22:57:09.670Z,18.10
2018-04-06T22:59:37.187Z,18.10
2018-04-06T23:02:04.701Z,18.00
2018-04-06T23:04:32.254Z,18.00
2018-04-06T23:06:59.726Z,18.00
2018-04-06T23:09:27.214Z,18.00
2018-04-06T23:11:54.693Z,17.90
2018-04-06T23:14:22.180Z,17.90
2018-04-06T23:16:50.435Z,17.90
2018-04-06T23:19:17.914Z,17.90
2018-04-06T23:21:45.420Z,17.80
2018-04-06T23:24:13.664Z,17.80
2018-04-06T23:26:41.171Z,17.80
2018-04-06T23:29:09.460Z,17.70
2018-04-06T23:31:36.980Z,17.70
2018-04-06T23:34:05.310Z,17.70
2018-04-06T23:36:33.645Z,17.70
2018-04-06T23:39:01.155Z,17.70
2018-04-06T23:41:28.649Z,17.70
2018-04-06T23:43:56.133Z,17.70
2018-04-06T23:46:23.634Z,17.60
2018-04-06T23:48:51.112Z,17.60
2018-04-06T23:51:18.630Z,17.50
2018-04-06T23:53:46.927Z,17.50
2018-04-06T23:56:15.190Z,17.40
2018-04-06T23:58:42.685Z,17.40
